sensor_id;sensor_type;location;lat;lon;timestamp;temperature;humidity
14727;DHT22;7454;51.256;8.176;2024-03-08T00:00:26;1.90;76.90
14727;DHT22;7454;51.256;8.176;2024-03-08T00:02:58;1.90;76.90
14727;DHT22;7454;51.256;8.176;2024-03-08T00:05:30;1.90;76.80
14727;DHT22;7454;51.256;8.176;2024-03-08T00:08:03;1.90;76.90
14727;DHT22;7454;51.256;8.176;2024-03-08T00:10:36;1.90;76.90
14727;DHT22;7454;51.256;8.176;2024-03-08T00:13:10;1.80;76.90
14727;DHT22;7454;51.256;8.176;2024-03-08T00:15:42;1.80;76.90
14727;DHT22;7454;51.256;8.176;2024-03-08T00:18:21;1.80;76.80
14727;DHT22;7454;51.256;8.176;2024-03-08T00:20:54;1.80;76.90
14727;DHT22;7454;51.256;8.176;2024-03-08T00:23:26;1.90;77.00
14727;DHT22;7454;51.256;8.176;2024-03-08T00:26:00;1.80;76.90
14727;DHT22;7454;51.256;8.176;2024-03-08T00:28:26;1.80;76.80
14727;DHT22;7454;51.256;8.176;2024-03-08T00:30:59;1.80;76.90
14727;DHT22;7454;51.256;8.176;2024-03-08T00:33:32;1.80;76.90
14727;DHT22;7454;51.256;8.176;2024-03-08T00:36:04;1.80;76.90
14727;DHT22;7454;51.256;8.176;2024-03-08T00:38:43;1.80;76.90
14727;DHT22;7454;51.256;8.176;2024-03-08T00:41:15;1.80;76.90
14727;DHT22;7454;51.256;8.176;2024-03-08T00:43:41;1.80;77.00
14727;DHT22;7454;51.256;8.176;2024-03-08T00:46:13;1.80;76.80
14727;DHT22;7454;51.256;8.176;2024-03-08T00:48:47;1.70;76.80
14727;DHT22;7454;51.256;8.176;2024-03-08T00:51:20;1.70;76.90
14727;DHT22;7454;51.256;8.176;2024-03-08T00:53:53;1.70;76.90
14727;DHT22;7454;51.256;8.176;2024-03-08T00:56:25;1.60;76.90
14727;DHT22;7454;51.256;8.176;2024-03-08T00:58:57;1.60;76.90
14727;DHT22;7454;51.256;8.176;2024-03-08T01:01:29;1.60;77.00
14727;DHT22;7454;51.256;8.176;2024-03-08T01:04:01;1.50;76.90
14727;DHT22;7454;51.256;8.176;2024-03-08T01:06:27;1.50;77.00
14727;DHT22;7454;51.256;8.176;2024-03-08T01:08:59;1.60;77.00
14727;DHT22;7454;51.256;8.176;2024-03-08T01:11:31;1.50;77.00
14727;DHT22;7454;51.256;8.176;2024-03-08T01:14:03;1.50;77.00
14727;DHT22;7454;51.256;8.176;2024-03-08T01:16:35;1.50;76.90
14727;DHT22;7454;51.256;8.176;2024-03-08T01:19:07;1.50;77.00
14727;DHT22;7454;51.256;8.176;2024-03-08T01:21:39;1.50;77.00
14727;DHT22;7454;51.256;8.176;2024-03-08T01:24:11;1.50;77.10
14727;DHT22;7454;51.256;8.176;2024-03-08T01:26:43;1.50;77.10
14727;DHT22;7454;51.256;8.176;2024-03-08T01:29:16;1.50;77.10
14727;DHT22;7454;51.256;8.176;2024-03-08T01:31:48;1.50;77.00
14727;DHT22;7454;51.256;8.176;2024-03-08T01:34:14;1.50;77.10
14727;DHT22;7454;51.256;8.176;2024-03-08T01:36:46;1.50;77.10
14727;DHT22;7454;51.256;8.176;2024-03-08T01:39:32;1.50;77.00
14727;DHT22;7454;51.256;8.176;2024-03-08T01:42:04;1.50;77.00
14727;DHT22;7454;51.256;8.176;2024-03-08T01:44:37;1.60;77.00
14727;DHT22;7454;51.256;8.176;2024-03-08T01:47:10;1.40;76.90
14727;DHT22;7454;51.256;8.176;2024-03-08T01:49:42;1.40;77.10
14727;DHT22;7454;51.256;8.176;2024-03-08T01:52:16;1.40;77.20
14727;DHT22;7454;51.256;8.176;2024-03-08T01:54:50;1.50;77.10
14727;DHT22;7454;51.256;8.176;2024-03-08T01:57:22;1.40;77.00
14727;DHT22;7454;51.256;8.176;2024-03-08T01:59:54;1.40;77.00
14727;DHT22;7454;51.256;8.176;2024-03-08T02:02:33;1.40;77.00
14727;DHT22;7454;51.256;8.176;2024-03-08T02:05:08;1.30;77.10
14727;DHT22;7454;51.256;8.176;2024-03-08T02:07:41;1.30;77.10
14727;DHT22;7454;51.256;8.176;2024-03-08T02:10:15;1.30;77.00
14727;DHT22;7454;51.256;8.176;2024-03-08T02:12:54;1.30;77.10
14727;DHT22;7454;51.256;8.176;2024-03-08T02:15:49;1.30;77.10
14727;DHT22;7454;51.256;8.176;2024-03-08T02:18:30;1.20;77.10
14727;DHT22;7454;51.256;8.176;2024-03-08T02:21:06;1.20;77.10
14727;DHT22;7454;51.256;8.176;2024-03-08T02:23:40;1.30;77.10
14727;DHT22;7454;51.256;8.176;2024-03-08T02:26:12;1.20;77.10
14727;DHT22;7454;51.256;8.176;2024-03-08T02:28:44;1.20;77.10
14727;DHT22;7454;51.256;8.176;2024-03-08T02:31:16;1.20;77.10
14727;DHT22;7454;51.256;8.176;2024-03-08T02:33:48;1.30;77.20
14727;DHT22;7454;51.256;8.176;2024-03-08T02:36:20;1.20;77.10
14727;DHT22;7454;51.256;8.176;2024-03-08T02:39:06;1.20;77.10
14727;DHT22;7454;51.256;8.176;2024-03-08T02:41:38;1.20;77.10
14727;DHT22;7454;51.256;8.176;2024-03-08T02:44:10;1.20;77.20
14727;DHT22;7454;51.256;8.176;2024-03-08T02:46:43;1.30;77.10
14727;DHT22;7454;51.256;8.176;2024-03-08T02:49:15;1.20;77.10
14727;DHT22;7454;51.256;8.176;2024-03-08T02:51:48;1.20;77.20
14727;DHT22;7454;51.256;8.176;2024-03-08T02:54:20;1.20;77.10
14727;DHT22;7454;51.256;8.176;2024-03-08T02:56:52;1.20;77.00
14727;DHT22;7454;51.256;8.176;2024-03-08T02:59:24;1.20;77.10
14727;DHT22;7454;51.256;8.176;2024-03-08T03:01:56;1.20;77.10
14727;DHT22;7454;51.256;8.176;2024-03-08T03:04:28;1.30;77.10
14727;DHT22;7454;51.256;8.176;2024-03-08T03:07:00;1.20;77.00
14727;DHT22;7454;51.256;8.176;2024-03-08T03:09:32;1.20;77.00
14727;DHT22;7454;51.256;8.176;2024-03-08T03:12:04;1.20;77.10
14727;DHT22;7454;51.256;8.176;2024-03-08T03:14:36;1.20;77.10
14727;DHT22;7454;51.256;8.176;2024-03-08T03:17:11;1.10;77.00
14727;DHT22;7454;51.256;8.176;2024-03-08T03:19:43;1.10;77.10
14727;DHT22;7454;51.256;8.176;2024-03-08T03:22:15;1.10;77.00
14727;DHT22;7454;51.256;8.176;2024-03-08T03:24:47;1.10;77.10
14727;DHT22;7454;51.256;8.176;2024-03-08T03:27:19;1.00;77.10
14727;DHT22;7454;51.256;8.176;2024-03-08T03:29:51;1.10;77.20
14727;DHT22;7454;51.256;8.176;2024-03-08T03:32:23;1.10;77.10
14727;DHT22;7454;51.256;8.176;2024-03-08T03:34:55;1.20;77.10
14727;DHT22;7454;51.256;8.176;2024-03-08T03:37:27;1.10;77.10
14727;DHT22;7454;51.256;8.176;2024-03-08T03:39:59;1.10;77.10
14727;DHT22;7454;51.256;8.176;2024-03-08T03:42:40;1.00;77.10
14727;DHT22;7454;51.256;8.176;2024-03-08T03:45:12;0.90;77.00
14727;DHT22;7454;51.256;8.176;2024-03-08T03:47:51;1.00;77.00
14727;DHT22;7454;51.256;8.176;2024-03-08T03:50:23;0.90;77.00
14727;DHT22;7454;51.256;8.176;2024-03-08T03:52:55;0.90;77.10
14727;DHT22;7454;51.256;8.176;2024-03-08T03:55:27;0.80;77.00
14727;DHT22;7454;51.256;8.176;2024-03-08T03:58:00;0.90;77.10
14727;DHT22;7454;51.256;8.176;2024-03-08T04:00:32;0.80;77.00
14727;DHT22;7454;51.256;8.176;2024-03-08T04:03:04;0.70;77.00
14727;DHT22;7454;51.256;8.176;2024-03-08T04:05:36;0.80;77.10
14727;DHT22;7454;51.256;8.176;2024-03-08T04:08:08;0.70;77.00
14727;DHT22;7454;51.256;8.176;2024-03-08T04:10:40;0.80;77.10
14727;DHT22;7454;51.256;8.176;2024-03-08T04:13:13;0.70;77.00
14727;DHT22;7454;51.256;8.176;2024-03-08T04:15:47;0.70;77.10
14727;DHT22;7454;51.256;8.176;2024-03-08T04:18:20;0.70;77.10
14727;DHT22;7454;51.256;8.176;2024-03-08T04:20:46;0.70;77.20
14727;DHT22;7454;51.256;8.176;2024-03-08T04:23:18;0.70;77.10
14727;DHT22;7454;51.256;8.176;2024-03-08T04:25:51;0.70;77.20
14727;DHT22;7454;51.256;8.176;2024-03-08T04:28:23;0.70;77.20
14727;DHT22;7454;51.256;8.176;2024-03-08T04:30:55;0.70;77.30
14727;DHT22;7454;51.256;8.176;2024-03-08T04:33:27;0.80;77.10
14727;DHT22;7454;51.256;8.176;2024-03-08T04:35:59;0.70;77.20
14727;DHT22;7454;51.256;8.176;2024-03-08T04:38:38;0.80;77.20
14727;DHT22;7454;51.256;8.176;2024-03-08T04:41:12;0.80;77.20
14727;DHT22;7454;51.256;8.176;2024-03-08T04:43:38;0.80;77.20
14727;DHT22;7454;51.256;8.176;2024-03-08T04:46:10;0.80;77.30
14727;DHT22;7454;51.256;8.176;2024-03-08T04:48:42;0.80;77.20
14727;DHT22;7454;51.256;8.176;2024-03-08T04:51:15;0.90;77.30
14727;DHT22;7454;51.256;8.176;2024-03-08T04:53:47;0.90;77.20
14727;DHT22;7454;51.256;8.176;2024-03-08T04:56:19;0.90;77.20
14727;DHT22;7454;51.256;8.176;2024-03-08T04:58:51;1.00;77.20
14727;DHT22;7454;51.256;8.176;2024-03-08T05:01:23;1.00;77.20
14727;DHT22;7454;51.256;8.176;2024-03-08T05:03:55;0.90;77.10
14727;DHT22;7454;51.256;8.176;2024-03-08T05:06:27;0.90;77.10
14727;DHT22;7454;51.256;8.176;2024-03-08T05:09:00;0.80;77.10
14727;DHT22;7454;51.256;8.176;2024-03-08T05:11:32;0.70;77.00
14727;DHT22;7454;51.256;8.176;2024-03-08T05:14:04;0.70;77.10
14727;DHT22;7454;51.256;8.176;2024-03-08T05:16:36;0.70;77.10
14727;DHT22;7454;51.256;8.176;2024-03-08T05:19:08;0.70;77.20
14727;DHT22;7454;51.256;8.176;2024-03-08T05:21:49;0.70;77.10
14727;DHT22;7454;51.256;8.176;2024-03-08T05:24:21;0.60;77.10
14727;DHT22;7454;51.256;8.176;2024-03-08T05:26:53;0.60;77.10
14727;DHT22;7454;51.256;8.176;2024-03-08T05:29:25;0.60;77.10
14727;DHT22;7454;51.256;8.176;2024-03-08T05:31:58;0.50;77.00
14727;DHT22;7454;51.256;8.176;2024-03-08T05:34:31;0.50;77.00
14727;DHT22;7454;51.256;8.176;2024-03-08T05:36:57;0.50;77.10
14727;DHT22;7454;51.256;8.176;2024-03-08T05:39:30;0.50;77.10
14727;DHT22;7454;51.256;8.176;2024-03-08T05:42:02;0.40;77.10
14727;DHT22;7454;51.256;8.176;2024-03-08T05:44:34;0.40;77.10
14727;DHT22;7454;51.256;8.176;2024-03-08T05:47:06;0.40;77.10
14727;DHT22;7454;51.256;8.176;2024-03-08T05:49:38;0.50;77.20
14727;DHT22;7454;51.256;8.176;2024-03-08T05:52:11;0.40;77.10
14727;DHT22;7454;51.256;8.176;2024-03-08T05:54:43;0.40;77.20
14727;DHT22;7454;51.256;8.176;2024-03-08T05:57:17;0.40;77.20
14727;DHT22;7454;51.256;8.176;2024-03-08T05:59:49;0.40;77.20
14727;DHT22;7454;51.256;8.176;2024-03-08T06:02:21;0.40;77.10
14727;DHT22;7454;51.256;8.176;2024-03-08T06:04:53;0.40;77.20
14727;DHT22;7454;51.256;8.176;2024-03-08T06:07:25;0.40;77.20
14727;DHT22;7454;51.256;8.176;2024-03-08T06:09:57;0.40;77.20
14727;DHT22;7454;51.256;8.176;2024-03-08T06:12:29;0.40;77.20
14727;DHT22;7454;51.256;8.176;2024-03-08T06:15:06;0.40;77.20
14727;DHT22;7454;51.256;8.176;2024-03-08T06:17:41;0.40;77.20
14727;DHT22;7454;51.256;8.176;2024-03-08T06:20:13;0.40;77.10
14727;DHT22;7454;51.256;8.176;2024-03-08T06:22:45;0.40;77.10
14727;DHT22;7454;51.256;8.176;2024-03-08T06:25:17;0.40;77.10
14727;DHT22;7454;51.256;8.176;2024-03-08T06:27:49;0.40;77.30
14727;DHT22;7454;51.256;8.176;2024-03-08T06:30:21;0.40;77.20
14727;DHT22;7454;51.256;8.176;2024-03-08T06:32:47;0.50;77.10
14727;DHT22;7454;51.256;8.176;2024-03-08T06:35:19;0.50;77.30
14727;DHT22;7454;51.256;8.176;2024-03-08T06:37:58;0.50;77.30
14727;DHT22;7454;51.256;8.176;2024-03-08T06:40:30;0.50;77.10
14727;DHT22;7454;51.256;8.176;2024-03-08T06:43:02;0.50;77.30
14727;DHT22;7454;51.256;8.176;2024-03-08T06:45:37;0.50;77.30
14727;DHT22;7454;51.256;8.176;2024-03-08T06:48:03;0.50;77.20
14727;DHT22;7454;51.256;8.176;2024-03-08T06:50:35;0.50;77.20
14727;DHT22;7454;51.256;8.176;2024-03-08T06:53:08;0.60;77.40
14727;DHT22;7454;51.256;8.176;2024-03-08T06:55:40;0.70;77.40
14727;DHT22;7454;51.256;8.176;2024-03-08T06:58:12;0.70;77.50
14727;DHT22;7454;51.256;8.176;2024-03-08T07:00:44;0.70;77.40
14727;DHT22;7454;51.256;8.176;2024-03-08T07:03:16;0.70;77.30
14727;DHT22;7454;51.256;8.176;2024-03-08T07:05:48;0.70;77.40
14727;DHT22;7454;51.256;8.176;2024-03-08T07:08:20;0.70;77.40
14727;DHT22;7454;51.256;8.176;2024-03-08T07:10:47;0.80;77.50
14727;DHT22;7454;51.256;8.176;2024-03-08T07:13:20;0.80;77.30
14727;DHT22;7454;51.256;8.176;2024-03-08T07:15:52;0.80;77.40
14727;DHT22;7454;51.256;8.176;2024-03-08T07:18:24;0.80;77.40
14727;DHT22;7454;51.256;8.176;2024-03-08T07:20:56;0.80;77.30
14727;DHT22;7454;51.256;8.176;2024-03-08T07:23:28;0.90;77.40
14727;DHT22;7454;51.256;8.176;2024-03-08T07:26:26;0.90;77.50
14727;DHT22;7454;51.256;8.176;2024-03-08T07:28:59;1.00;77.50
14727;DHT22;7454;51.256;8.176;2024-03-08T07:31:26;1.00;77.50
14727;DHT22;7454;51.256;8.176;2024-03-08T07:33:58;1.00;77.60
14727;DHT22;7454;51.256;8.176;2024-03-08T07:36:30;1.10;77.60
14727;DHT22;7454;51.256;8.176;2024-03-08T07:39:02;1.10;77.60
14727;DHT22;7454;51.256;8.176;2024-03-08T07:41:43;1.10;77.60
14727;DHT22;7454;51.256;8.176;2024-03-08T07:44:15;1.20;77.60
14727;DHT22;7454;51.256;8.176;2024-03-08T07:46:47;1.20;77.70
14727;DHT22;7454;51.256;8.176;2024-03-08T07:49:19;1.20;77.60
14727;DHT22;7454;51.256;8.176;2024-03-08T07:51:51;1.30;77.70
14727;DHT22;7454;51.256;8.176;2024-03-08T07:54:23;1.30;77.70
14727;DHT22;7454;51.256;8.176;2024-03-08T07:56:57;1.40;77.70
14727;DHT22;7454;51.256;8.176;2024-03-08T07:59:29;1.50;77.80
14727;DHT22;7454;51.256;8.176;2024-03-08T08:02:02;1.50;77.80
14727;DHT22;7454;51.256;8.176;2024-03-08T08:04:35;1.60;77.80
14727;DHT22;7454;51.256;8.176;2024-03-08T08:07:07;1.70;77.80
14727;DHT22;7454;51.256;8.176;2024-03-08T08:09:40;1.80;77.90
14727;DHT22;7454;51.256;8.176;2024-03-08T08:12:21;1.90;77.80
14727;DHT22;7454;51.256;8.176;2024-03-08T08:14:53;2.00;77.90
14727;DHT22;7454;51.256;8.176;2024-03-08T08:17:25;2.10;77.90
14727;DHT22;7454;51.256;8.176;2024-03-08T08:19:57;2.20;77.90
14727;DHT22;7454;51.256;8.176;2024-03-08T08:22:29;2.30;77.90
14727;DHT22;7454;51.256;8.176;2024-03-08T08:24:55;2.40;77.90
14727;DHT22;7454;51.256;8.176;2024-03-08T08:27:27;2.40;77.90
14727;DHT22;7454;51.256;8.176;2024-03-08T08:29:53;2.50;77.90
14727;DHT22;7454;51.256;8.176;2024-03-08T08:32:25;2.60;77.80
14727;DHT22;7454;51.256;8.176;2024-03-08T08:34:58;2.60;77.60
14727;DHT22;7454;51.256;8.176;2024-03-08T08:37:31;2.70;77.60
14727;DHT22;7454;51.256;8.176;2024-03-08T08:40:05;2.80;77.60
14727;DHT22;7454;51.256;8.176;2024-03-08T08:42:46;2.90;77.60
14727;DHT22;7454;51.256;8.176;2024-03-08T08:45:18;3.00;77.70
14727;DHT22;7454;51.256;8.176;2024-03-08T08:47:50;3.00;77.40
14727;DHT22;7454;51.256;8.176;2024-03-08T08:50:22;3.10;77.30
14727;DHT22;7454;51.256;8.176;2024-03-08T08:52:54;3.20;77.40
14727;DHT22;7454;51.256;8.176;2024-03-08T08:55:26;3.30;77.40
14727;DHT22;7454;51.256;8.176;2024-03-08T08:57:58;3.40;77.20
14727;DHT22;7454;51.256;8.176;2024-03-08T09:00:30;3.50;77.20
14727;DHT22;7454;51.256;8.176;2024-03-08T09:03:04;3.50;77.20
14727;DHT22;7454;51.256;8.176;2024-03-08T09:05:38;3.60;77.20
14727;DHT22;7454;51.256;8.176;2024-03-08T09:08:10;3.70;77.10
14727;DHT22;7454;51.256;8.176;2024-03-08T09:10:42;3.70;77.10
14727;DHT22;7454;51.256;8.176;2024-03-08T09:13:14;3.70;77.00
14727;DHT22;7454;51.256;8.176;2024-03-08T09:15:46;3.80;77.00
14727;DHT22;7454;51.256;8.176;2024-03-08T09:18:18;3.80;76.90
14727;DHT22;7454;51.256;8.176;2024-03-08T09:20:50;3.90;77.10
14727;DHT22;7454;51.256;8.176;2024-03-08T09:23:22;3.90;76.90
14727;DHT22;7454;51.256;8.176;2024-03-08T09:25:58;4.00;76.80
14727;DHT22;7454;51.256;8.176;2024-03-08T09:28:30;4.00;76.80
14727;DHT22;7454;51.256;8.176;2024-03-08T09:30:56;4.00;76.80
14727;DHT22;7454;51.256;8.176;2024-03-08T09:33:30;4.10;76.80
14727;DHT22;7454;51.256;8.176;2024-03-08T09:36:02;4.10;76.60
14727;DHT22;7454;51.256;8.176;2024-03-08T09:38:42;4.20;76.70
14727;DHT22;7454;51.256;8.176;2024-03-08T09:41:14;4.20;76.80
14727;DHT22;7454;51.256;8.176;2024-03-08T09:43:53;4.20;76.60
14727;DHT22;7454;51.256;8.176;2024-03-08T09:46:27;4.20;76.70
14727;DHT22;7454;51.256;8.176;2024-03-08T09:48:59;4.30;76.50
14727;DHT22;7454;51.256;8.176;2024-03-08T09:51:33;4.40;76.60
14727;DHT22;7454;51.256;8.176;2024-03-08T09:54:06;4.40;76.50
14727;DHT22;7454;51.256;8.176;2024-03-08T09:56:39;4.40;76.40
14727;DHT22;7454;51.256;8.176;2024-03-08T09:59:13;4.50;76.20
14727;DHT22;7454;51.256;8.176;2024-03-08T10:02:13;4.50;76.20
14727;DHT22;7454;51.256;8.176;2024-03-08T10:04:46;4.60;76.10
14727;DHT22;7454;51.256;8.176;2024-03-08T10:07:18;4.70;76.10
14727;DHT22;7454;51.256;8.176;2024-03-08T10:09:44;4.60;76.00
14727;DHT22;7454;51.256;8.176;2024-03-08T10:12:21;4.70;76.10
14727;DHT22;7454;51.256;8.176;2024-03-08T10:14:55;4.70;76.00
14727;DHT22;7454;51.256;8.176;2024-03-08T10:17:27;4.80;75.80
14727;DHT22;7454;51.256;8.176;2024-03-08T10:20:03;4.80;75.90
14727;DHT22;7454;51.256;8.176;2024-03-08T10:22:46;4.90;76.00
14727;DHT22;7454;51.256;8.176;2024-03-08T10:25:19;4.90;75.90
14727;DHT22;7454;51.256;8.176;2024-03-08T10:27:51;4.90;75.70
14727;DHT22;7454;51.256;8.176;2024-03-08T10:30:23;5.00;75.80
14727;DHT22;7454;51.256;8.176;2024-03-08T10:32:55;5.10;75.70
14727;DHT22;7454;51.256;8.176;2024-03-08T10:35:28;5.10;75.70
14727;DHT22;7454;51.256;8.176;2024-03-08T10:38:07;5.10;75.70
14727;DHT22;7454;51.256;8.176;2024-03-08T10:40:43;5.10;75.60
14727;DHT22;7454;51.256;8.176;2024-03-08T10:43:19;5.10;75.70
14727;DHT22;7454;51.256;8.176;2024-03-08T10:46:40;5.20;75.80
14727;DHT22;7454;51.256;8.176;2024-03-08T10:48:57;5.20;75.70
14727;DHT22;7454;51.256;8.176;2024-03-08T10:51:34;5.20;75.60
14727;DHT22;7454;51.256;8.176;2024-03-08T10:54:07;5.30;75.60
14727;DHT22;7454;51.256;8.176;2024-03-08T10:56:41;5.30;75.50
14727;DHT22;7454;51.256;8.176;2024-03-08T10:59:13;5.50;75.40
14727;DHT22;7454;51.256;8.176;2024-03-08T11:01:46;5.50;75.10
14727;DHT22;7454;51.256;8.176;2024-03-08T11:04:18;5.60;74.90
14727;DHT22;7454;51.256;8.176;2024-03-08T11:06:48;5.60;74.90
14727;DHT22;7454;51.256;8.176;2024-03-08T11:09:31;5.60;74.90
14727;DHT22;7454;51.256;8.176;2024-03-08T11:12:25;5.70;74.80
14727;DHT22;7454;51.256;8.176;2024-03-08T11:15:10;5.70;75.00
14727;DHT22;7454;51.256;8.176;2024-03-08T11:17:47;5.80;74.80
14727;DHT22;7454;51.256;8.176;2024-03-08T11:20:19;5.70;74.70
14727;DHT22;7454;51.256;8.176;2024-03-08T11:23:02;5.80;74.70
14727;DHT22;7454;51.256;8.176;2024-03-08T11:25:36;5.90;74.70
14727;DHT22;7454;51.256;8.176;2024-03-08T11:28:17;5.90;74.80
14727;DHT22;7454;51.256;8.176;2024-03-08T11:33:31;6.00;74.40
14727;DHT22;7454;51.256;8.176;2024-03-08T11:38:43;6.10;74.20
14727;DHT22;7454;51.256;8.176;2024-03-08T11:41:31;6.10;74.30
14727;DHT22;7454;51.256;8.176;2024-03-08T11:44:04;6.10;74.30
14727;DHT22;7454;51.256;8.176;2024-03-08T11:46:36;6.10;74.50
14727;DHT22;7454;51.256;8.176;2024-03-08T11:49:09;6.20;74.50
14727;DHT22;7454;51.256;8.176;2024-03-08T11:51:41;6.10;74.50
14727;DHT22;7454;51.256;8.176;2024-03-08T11:54:14;6.20;74.30
14727;DHT22;7454;51.256;8.176;2024-03-08T11:56:46;6.20;74.50
14727;DHT22;7454;51.256;8.176;2024-03-08T11:59:19;6.20;74.50
14727;DHT22;7454;51.256;8.176;2024-03-08T12:02:25;6.30;74.40
14727;DHT22;7454;51.256;8.176;2024-03-08T12:04:57;6.30;74.30
14727;DHT22;7454;51.256;8.176;2024-03-08T12:07:36;6.40;74.30
14727;DHT22;7454;51.256;8.176;2024-03-08T12:10:18;6.40;74.40
14727;DHT22;7454;51.256;8.176;2024-03-08T12:12:54;6.50;74.40
14727;DHT22;7454;51.256;8.176;2024-03-08T12:15:31;6.50;74.40
14727;DHT22;7454;51.256;8.176;2024-03-08T12:18:05;6.60;74.10
14727;DHT22;7454;51.256;8.176;2024-03-08T12:20:38;6.50;74.10
14727;DHT22;7454;51.256;8.176;2024-03-08T12:23:13;6.60;74.20
14727;DHT22;7454;51.256;8.176;2024-03-08T12:25:46;6.60;74.30
14727;DHT22;7454;51.256;8.176;2024-03-08T12:28:13;6.60;74.10
14727;DHT22;7454;51.256;8.176;2024-03-08T12:30:50;6.70;74.10
14727;DHT22;7454;51.256;8.176;2024-03-08T12:33:24;6.70;74.10
14727;DHT22;7454;51.256;8.176;2024-03-08T12:35:56;6.70;74.10
14727;DHT22;7454;51.256;8.176;2024-03-08T12:38:37;6.70;73.70
14727;DHT22;7454;51.256;8.176;2024-03-08T12:41:09;6.80;74.20
14727;DHT22;7454;51.256;8.176;2024-03-08T12:43:41;6.70;74.10
14727;DHT22;7454;51.256;8.176;2024-03-08T12:46:20;6.70;73.90
14727;DHT22;7454;51.256;8.176;2024-03-08T12:48:53;6.70;74.10
14727;DHT22;7454;51.256;8.176;2024-03-08T12:51:24;6.80;73.90
14727;DHT22;7454;51.256;8.176;2024-03-08T12:53:56;6.80;74.00
14727;DHT22;7454;51.256;8.176;2024-03-08T12:56:29;6.70;73.90
14727;DHT22;7454;51.256;8.176;2024-03-08T12:59:06;6.80;73.70
14727;DHT22;7454;51.256;8.176;2024-03-08T13:01:39;6.80;73.60
14727;DHT22;7454;51.256;8.176;2024-03-08T13:04:05;6.80;73.80
14727;DHT22;7454;51.256;8.176;2024-03-08T13:06:42;6.90;74.00
14727;DHT22;7454;51.256;8.176;2024-03-08T13:09:15;6.80;73.70
14727;DHT22;7454;51.256;8.176;2024-03-08T13:11:40;6.90;74.00
14727;DHT22;7454;51.256;8.176;2024-03-08T13:14:12;6.90;74.00
14727;DHT22;7454;51.256;8.176;2024-03-08T13:16:44;6.90;74.20
14727;DHT22;7454;51.256;8.176;2024-03-08T13:19:19;6.90;73.80
14727;DHT22;7454;51.256;8.176;2024-03-08T13:21:53;6.90;73.80
14727;DHT22;7454;51.256;8.176;2024-03-08T13:24:25;6.90;74.00
14727;DHT22;7454;51.256;8.176;2024-03-08T13:26:57;6.90;73.90
14727;DHT22;7454;51.256;8.176;2024-03-08T13:29:31;6.90;73.80
14727;DHT22;7454;51.256;8.176;2024-03-08T13:32:06;7.00;73.90
14727;DHT22;7454;51.256;8.176;2024-03-08T13:34:42;7.00;73.50
14727;DHT22;7454;51.256;8.176;2024-03-08T13:37:14;7.00;73.60
14727;DHT22;7454;51.256;8.176;2024-03-08T13:40:00;7.10;73.70
14727;DHT22;7454;51.256;8.176;2024-03-08T13:42:32;7.10;73.70
14727;DHT22;7454;51.256;8.176;2024-03-08T13:45:05;7.20;73.80
14727;DHT22;7454;51.256;8.176;2024-03-08T13:47:40;7.10;73.90
14727;DHT22;7454;51.256;8.176;2024-03-08T13:50:12;7.10;73.70
14727;DHT22;7454;51.256;8.176;2024-03-08T13:52:38;7.10;73.80
14727;DHT22;7454;51.256;8.176;2024-03-08T13:55:11;7.10;73.50
14727;DHT22;7454;51.256;8.176;2024-03-08T13:57:45;7.20;73.90
14727;DHT22;7454;51.256;8.176;2024-03-08T14:00:18;7.20;73.70
14727;DHT22;7454;51.256;8.176;2024-03-08T14:02:53;7.30;73.80
14727;DHT22;7454;51.256;8.176;2024-03-08T14:05:25;7.30;73.60
14727;DHT22;7454;51.256;8.176;2024-03-08T14:07:58;7.30;73.60
14727;DHT22;7454;51.256;8.176;2024-03-08T14:10:33;7.30;73.70
14727;DHT22;7454;51.256;8.176;2024-03-08T14:13:05;7.30;73.50
14727;DHT22;7454;51.256;8.176;2024-03-08T14:15:39;7.40;73.50
14727;DHT22;7454;51.256;8.176;2024-03-08T14:18:13;7.40;73.40
14727;DHT22;7454;51.256;8.176;2024-03-08T14:20:48;7.40;73.60
14727;DHT22;7454;51.256;8.176;2024-03-08T14:23:20;7.50;73.60
14727;DHT22;7454;51.256;8.176;2024-03-08T14:25:51;7.50;73.70
14727;DHT22;7454;51.256;8.176;2024-03-08T14:28:23;7.40;73.70
14727;DHT22;7454;51.256;8.176;2024-03-08T14:30:56;7.50;73.50
14727;DHT22;7454;51.256;8.176;2024-03-08T14:33:29;7.40;73.20
14727;DHT22;7454;51.256;8.176;2024-03-08T14:36:00;7.50;73.50
14727;DHT22;7454;51.256;8.176;2024-03-08T14:38:32;7.50;73.60
14727;DHT22;7454;51.256;8.176;2024-03-08T14:41:26;7.50;73.50
14727;DHT22;7454;51.256;8.176;2024-03-08T14:43:58;7.50;73.70
14727;DHT22;7454;51.256;8.176;2024-03-08T14:46:38;7.50;73.50
14727;DHT22;7454;51.256;8.176;2024-03-08T14:49:11;7.50;73.60
14727;DHT22;7454;51.256;8.176;2024-03-08T14:51:44;7.50;73.80
14727;DHT22;7454;51.256;8.176;2024-03-08T14:54:15;7.50;73.40
14727;DHT22;7454;51.256;8.176;2024-03-08T14:56:48;7.50;73.30
14727;DHT22;7454;51.256;8.176;2024-03-08T14:59:22;7.50;73.60
14727;DHT22;7454;51.256;8.176;2024-03-08T15:01:55;7.50;73.60
14727;DHT22;7454;51.256;8.176;2024-03-08T15:04:26;7.50;73.50
14727;DHT22;7454;51.256;8.176;2024-03-08T15:06:59;7.60;73.00
14727;DHT22;7454;51.256;8.176;2024-03-08T15:09:30;7.60;72.90
14727;DHT22;7454;51.256;8.176;2024-03-08T15:12:11;7.60;73.20
14727;DHT22;7454;51.256;8.176;2024-03-08T15:14:42;7.60;73.40
14727;DHT22;7454;51.256;8.176;2024-03-08T15:17:15;7.60;73.40
14727;DHT22;7454;51.256;8.176;2024-03-08T15:19:53;7.60;73.30
14727;DHT22;7454;51.256;8.176;2024-03-08T15:22:26;7.60;73.50
14727;DHT22;7454;51.256;8.176;2024-03-08T15:24:59;7.60;73.40
14727;DHT22;7454;51.256;8.176;2024-03-08T15:27:30;7.60;73.30
14727;DHT22;7454;51.256;8.176;2024-03-08T15:30:04;7.60;73.10
14727;DHT22;7454;51.256;8.176;2024-03-08T15:32:44;7.60;73.40
14727;DHT22;7454;51.256;8.176;2024-03-08T15:35:17;7.60;73.20
14727;DHT22;7454;51.256;8.176;2024-03-08T15:37:49;7.60;73.30
14727;DHT22;7454;51.256;8.176;2024-03-08T15:40:28;7.60;73.40
14727;DHT22;7454;51.256;8.176;2024-03-08T15:43:03;7.60;73.60
14727;DHT22;7454;51.256;8.176;2024-03-08T15:45:35;7.60;73.40
14727;DHT22;7454;51.256;8.176;2024-03-08T15:48:09;7.50;73.30
14727;DHT22;7454;51.256;8.176;2024-03-08T15:50:42;7.50;73.50
14727;DHT22;7454;51.256;8.176;2024-03-08T15:53:14;7.50;73.30
14727;DHT22;7454;51.256;8.176;2024-03-08T15:55:46;7.60;73.60
14727;DHT22;7454;51.256;8.176;2024-03-08T15:58:20;7.60;73.50
14727;DHT22;7454;51.256;8.176;2024-03-08T16:00:52;7.50;73.40
14727;DHT22;7454;51.256;8.176;2024-03-08T16:03:28;7.50;73.50
14727;DHT22;7454;51.256;8.176;2024-03-08T16:06:02;7.50;73.80
14727;DHT22;7454;51.256;8.176;2024-03-08T16:08:36;7.50;73.80
14727;DHT22;7454;51.256;8.176;2024-03-08T16:11:11;7.40;73.30
14727;DHT22;7454;51.256;8.176;2024-03-08T16:13:43;7.40;73.40
14727;DHT22;7454;51.256;8.176;2024-03-08T16:16:14;7.40;73.40
14727;DHT22;7454;51.256;8.176;2024-03-08T16:18:47;7.40;73.30
14727;DHT22;7454;51.256;8.176;2024-03-08T16:21:20;7.40;73.70
14727;DHT22;7454;51.256;8.176;2024-03-08T16:23:52;7.40;73.50
14727;DHT22;7454;51.256;8.176;2024-03-08T16:26:25;7.40;73.60
14727;DHT22;7454;51.256;8.176;2024-03-08T16:28:58;7.40;73.60
14727;DHT22;7454;51.256;8.176;2024-03-08T16:31:31;7.40;73.70
14727;DHT22;7454;51.256;8.176;2024-03-08T16:34:03;7.30;73.80
14727;DHT22;7454;51.256;8.176;2024-03-08T16:36:30;7.30;73.70
14727;DHT22;7454;51.256;8.176;2024-03-08T16:39:04;7.30;73.70
14727;DHT22;7454;51.256;8.176;2024-03-08T16:41:36;7.20;73.70
14727;DHT22;7454;51.256;8.176;2024-03-08T16:44:15;7.20;73.70
14727;DHT22;7454;51.256;8.176;2024-03-08T16:46:50;7.20;73.80